sensor_id;sensor_type;location;lat;lon;timestamp;temperature;humidity
17236;DHT22;8734;59.272;17.780;2022-12-10T00:01:43;-3.20;99.90
17236;DHT22;8734;59.272;17.780;2022-12-10T00:04:12;-3.20;99.90
17236;DHT22;8734;59.272;17.780;2022-12-10T00:06:42;-3.20;99.90
17236;DHT22;8734;59.272;17.780;2022-12-10T00:09:14;-3.20;99.90
17236;DHT22;8734;59.272;17.780;2022-12-10T00:11:44;-3.10;99.90
17236;DHT22;8734;59.272;17.780;2022-12-10T00:14:13;-3.10;99.90
17236;DHT22;8734;59.272;17.780;2022-12-10T00:16:41;-3.10;99.90
17236;DHT22;8734;59.272;17.780;2022-12-10T00:19:10;-3.10;99.90
17236;DHT22;8734;59.272;17.780;2022-12-10T00:21:39;-3.10;99.90
17236;DHT22;8734;59.272;17.780;2022-12-10T00:24:08;-3.10;99.90
17236;DHT22;8734;59.272;17.780;2022-12-10T00:26:39;-3.10;99.90
17236;DHT22;8734;59.272;17.780;2022-12-10T00:29:11;-3.10;99.90
17236;DHT22;8734;59.272;17.780;2022-12-10T00:31:39;-3.20;99.90
17236;DHT22;8734;59.272;17.780;2022-12-10T00:34:10;-3.20;99.90
17236;DHT22;8734;59.272;17.780;2022-12-10T00:36:40;-3.20;99.90
17236;DHT22;8734;59.272;17.780;2022-12-10T00:39:11;-3.20;99.90
17236;DHT22;8734;59.272;17.780;2022-12-10T00:41:42;-3.10;99.90
17236;DHT22;8734;59.272;17.780;2022-12-10T00:44:11;-3.10;99.90
17236;DHT22;8734;59.272;17.780;2022-12-10T00:46:39;-3.10;99.90
17236;DHT22;8734;59.272;17.780;2022-12-10T00:49:08;-3.10;99.90
17236;DHT22;8734;59.272;17.780;2022-12-10T00:51:37;-3.10;99.90
17236;DHT22;8734;59.272;17.780;2022-12-10T00:54:05;-3.00;99.90
17236;DHT22;8734;59.272;17.780;2022-12-10T00:56:34;-3.00;99.90
17236;DHT22;8734;59.272;17.780;2022-12-10T00:59:04;-3.00;99.90
17236;DHT22;8734;59.272;17.780;2022-12-10T01:01:35;-3.00;99.90
17236;DHT22;8734;59.272;17.780;2022-12-10T01:04:06;-3.00;99.90
17236;DHT22;8734;59.272;17.780;2022-12-10T01:06:36;-2.90;99.90
17236;DHT22;8734;59.272;17.780;2022-12-10T01:09:11;-2.90;99.90
17236;DHT22;8734;59.272;17.780;2022-12-10T01:11:41;-2.90;99.90
17236;DHT22;8734;59.272;17.780;2022-12-10T01:14:14;-2.90;99.90
17236;DHT22;8734;59.272;17.780;2022-12-10T01:16:44;-2.80;99.90
17236;DHT22;8734;59.272;17.780;2022-12-10T01:19:13;-2.80;99.90
17236;DHT22;8734;59.272;17.780;2022-12-10T01:21:43;-2.80;99.90
17236;DHT22;8734;59.272;17.780;2022-12-10T01:24:11;-2.70;99.90
17236;DHT22;8734;59.272;17.780;2022-12-10T01:26:39;-2.70;99.90
17236;DHT22;8734;59.272;17.780;2022-12-10T01:29:08;-2.70;99.90
17236;DHT22;8734;59.272;17.780;2022-12-10T01:31:38;-2.70;99.90
17236;DHT22;8734;59.272;17.780;2022-12-10T01:34:10;-2.70;99.90
17236;DHT22;8734;59.272;17.780;2022-12-10T01:36:41;-2.70;99.90
17236;DHT22;8734;59.272;17.780;2022-12-10T01:39:12;-2.60;99.90
17236;DHT22;8734;59.272;17.780;2022-12-10T01:41:42;-2.70;99.90
17236;DHT22;8734;59.272;17.780;2022-12-10T01:47:14;-2.60;99.90
17236;DHT22;8734;59.272;17.780;2022-12-10T01:49:43;-2.60;99.90
17236;DHT22;8734;59.272;17.780;2022-12-10T01:52:11;-2.60;99.90
17236;DHT22;8734;59.272;17.780;2022-12-10T01:54:43;-2.60;99.90
17236;DHT22;8734;59.272;17.780;2022-12-10T01:57:14;-2.60;99.90
17236;DHT22;8734;59.272;17.780;2022-12-10T01:59:47;-2.60;99.90
17236;DHT22;8734;59.272;17.780;2022-12-10T02:02:28;-2.50;99.90
17236;DHT22;8734;59.272;17.780;2022-12-10T02:05:13;-2.50;99.90
17236;DHT22;8734;59.272;17.780;2022-12-10T02:07:55;-2.50;99.90
17236;DHT22;8734;59.272;17.780;2022-12-10T02:10:36;-2.50;99.90
17236;DHT22;8734;59.272;17.780;2022-12-10T02:13:09;-2.50;99.90
17236;DHT22;8734;59.272;17.780;2022-12-10T02:15:43;-2.50;99.90
17236;DHT22;8734;59.272;17.780;2022-12-10T02:18:18;-2.50;99.90
17236;DHT22;8734;59.272;17.780;2022-12-10T02:20:49;-2.50;99.90
17236;DHT22;8734;59.272;17.780;2022-12-10T02:23:22;-2.50;99.90
17236;DHT22;8734;59.272;17.780;2022-12-10T02:25:58;-2.40;99.90
17236;DHT22;8734;59.272;17.780;2022-12-10T02:28:35;-2.40;99.90
17236;DHT22;8734;59.272;17.780;2022-12-10T02:31:08;-2.40;99.90
17236;DHT22;8734;59.272;17.780;2022-12-10T02:33:40;-2.50;99.90
17236;DHT22;8734;59.272;17.780;2022-12-10T02:36:12;-2.50;99.90
17236;DHT22;8734;59.272;17.780;2022-12-10T02:38:42;-2.50;99.90
17236;DHT22;8734;59.272;17.780;2022-12-10T02:41:15;-2.40;99.90
17236;DHT22;8734;59.272;17.780;2022-12-10T02:43:46;-2.40;99.90
17236;DHT22;8734;59.272;17.780;2022-12-10T02:46:18;-2.40;99.90
17236;DHT22;8734;59.272;17.780;2022-12-10T02:48:48;-2.40;99.90
17236;DHT22;8734;59.272;17.780;2022-12-10T02:51:17;-2.50;99.90
17236;DHT22;8734;59.272;17.780;2022-12-10T02:53:46;-2.40;99.90
17236;DHT22;8734;59.272;17.780;2022-12-10T02:56:20;-2.40;99.90
17236;DHT22;8734;59.272;17.780;2022-12-10T02:59:00;-2.40;99.90
17236;DHT22;8734;59.272;17.780;2022-12-10T03:01:39;-2.40;99.90
17236;DHT22;8734;59.272;17.780;2022-12-10T03:04:14;-2.40;99.90
17236;DHT22;8734;59.272;17.780;2022-12-10T03:06:47;-2.40;99.90
17236;DHT22;8734;59.272;17.780;2022-12-10T03:09:20;-2.40;99.90
17236;DHT22;8734;59.272;17.780;2022-12-10T03:11:55;-2.50;99.90
17236;DHT22;8734;59.272;17.780;2022-12-10T03:14:28;-2.40;99.90
17236;DHT22;8734;59.272;17.780;2022-12-10T03:17:00;-2.40;99.90
17236;DHT22;8734;59.272;17.780;2022-12-10T03:19:33;-2.40;99.90
17236;DHT22;8734;59.272;17.780;2022-12-10T03:22:05;-2.40;99.90
17236;DHT22;8734;59.272;17.780;2022-12-10T03:24:36;-2.40;99.90
17236;DHT22;8734;59.272;17.780;2022-12-10T03:27:05;-2.40;99.90
17236;DHT22;8734;59.272;17.780;2022-12-10T03:29:38;-2.40;99.90
17236;DHT22;8734;59.272;17.780;2022-12-10T03:32:08;-2.40;99.90
17236;DHT22;8734;59.272;17.780;2022-12-10T03:34:38;-2.40;99.90
17236;DHT22;8734;59.272;17.780;2022-12-10T03:37:07;-2.40;99.90
17236;DHT22;8734;59.272;17.780;2022-12-10T03:39:35;-2.40;99.90
17236;DHT22;8734;59.272;17.780;2022-12-10T03:42:04;-2.40;99.90
17236;DHT22;8734;59.272;17.780;2022-12-10T03:44:34;-2.40;99.90
17236;DHT22;8734;59.272;17.780;2022-12-10T03:47:04;-2.40;99.90
17236;DHT22;8734;59.272;17.780;2022-12-10T03:49:34;-2.40;99.90
17236;DHT22;8734;59.272;17.780;2022-12-10T03:52:02;-2.40;99.90
17236;DHT22;8734;59.272;17.780;2022-12-10T03:54:31;-2.40;99.90
17236;DHT22;8734;59.272;17.780;2022-12-10T03:57:00;-2.40;99.90
17236;DHT22;8734;59.272;17.780;2022-12-10T03:59:28;-2.40;99.90
17236;DHT22;8734;59.272;17.780;2022-12-10T04:01:57;-2.40;99.90
17236;DHT22;8734;59.272;17.780;2022-12-10T04:04:25;-2.30;99.90
17236;DHT22;8734;59.272;17.780;2022-12-10T04:06:55;-2.30;99.90
17236;DHT22;8734;59.272;17.780;2022-12-10T04:09:23;-2.30;99.90
17236;DHT22;8734;59.272;17.780;2022-12-10T04:11:55;-2.30;99.90
17236;DHT22;8734;59.272;17.780;2022-12-10T04:14:24;-2.30;99.90
17236;DHT22;8734;59.272;17.780;2022-12-10T04:17:11;-2.30;99.90
17236;DHT22;8734;59.272;17.780;2022-12-10T04:19:39;-2.30;99.90
17236;DHT22;8734;59.272;17.780;2022-12-10T04:22:10;-2.30;99.90
17236;DHT22;8734;59.272;17.780;2022-12-10T04:24:57;-2.30;99.90
17236;DHT22;8734;59.272;17.780;2022-12-10T04:27:48;-2.30;99.90
17236;DHT22;8734;59.272;17.780;2022-12-10T04:30:17;-2.30;99.90
17236;DHT22;8734;59.272;17.780;2022-12-10T04:32:45;-2.20;99.90
17236;DHT22;8734;59.272;17.780;2022-12-10T04:35:14;-2.30;99.90
17236;DHT22;8734;59.272;17.780;2022-12-10T04:37:44;-2.20;99.90
17236;DHT22;8734;59.272;17.780;2022-12-10T04:40:12;-2.20;99.90
17236;DHT22;8734;59.272;17.780;2022-12-10T04:42:41;-2.20;99.90
17236;DHT22;8734;59.272;17.780;2022-12-10T04:45:10;-2.20;99.90
17236;DHT22;8734;59.272;17.780;2022-12-10T04:47:38;-2.20;99.90
17236;DHT22;8734;59.272;17.780;2022-12-10T04:50:07;-2.10;99.90
17236;DHT22;8734;59.272;17.780;2022-12-10T04:52:36;-2.20;99.90
17236;DHT22;8734;59.272;17.780;2022-12-10T04:55:06;-2.10;99.90
17236;DHT22;8734;59.272;17.780;2022-12-10T04:57:35;-2.10;99.90
17236;DHT22;8734;59.272;17.780;2022-12-10T05:00:04;-2.10;99.90
17236;DHT22;8734;59.272;17.780;2022-12-10T05:02:32;-2.10;99.90
17236;DHT22;8734;59.272;17.780;2022-12-10T05:05:01;-2.10;99.90
17236;DHT22;8734;59.272;17.780;2022-12-10T05:07:30;-2.10;99.90
17236;DHT22;8734;59.272;17.780;2022-12-10T05:09:58;-2.10;99.90
17236;DHT22;8734;59.272;17.780;2022-12-10T05:12:28;-2.20;99.90
17236;DHT22;8734;59.272;17.780;2022-12-10T05:14:57;-2.10;99.90
17236;DHT22;8734;59.272;17.780;2022-12-10T05:17:25;-2.20;99.90
17236;DHT22;8734;59.272;17.780;2022-12-10T05:19:53;-2.20;99.90
17236;DHT22;8734;59.272;17.780;2022-12-10T05:22:22;-2.20;99.90
17236;DHT22;8734;59.272;17.780;2022-12-10T05:25:08;-2.20;99.90
17236;DHT22;8734;59.272;17.780;2022-12-10T05:27:38;-2.20;99.90
17236;DHT22;8734;59.272;17.780;2022-12-10T05:30:08;-2.20;99.90
17236;DHT22;8734;59.272;17.780;2022-12-10T05:32:37;-2.20;99.90
17236;DHT22;8734;59.272;17.780;2022-12-10T05:35:06;-2.20;99.90
17236;DHT22;8734;59.272;17.780;2022-12-10T05:37:34;-2.20;99.90
17236;DHT22;8734;59.272;17.780;2022-12-10T05:40:03;-2.30;99.90
17236;DHT22;8734;59.272;17.780;2022-12-10T05:42:32;-2.30;99.90
17236;DHT22;8734;59.272;17.780;2022-12-10T05:45:02;-2.30;99.90
17236;DHT22;8734;59.272;17.780;2022-12-10T05:47:30;-2.30;99.90
17236;DHT22;8734;59.272;17.780;2022-12-10T05:49:59;-2.30;99.90
17236;DHT22;8734;59.272;17.780;2022-12-10T05:52:27;-2.30;99.90
17236;DHT22;8734;59.272;17.780;2022-12-10T05:54:55;-2.30;99.90
17236;DHT22;8734;59.272;17.780;2022-12-10T05:57:23;-2.30;99.90
17236;DHT22;8734;59.272;17.780;2022-12-10T05:59:51;-2.40;99.90
17236;DHT22;8734;59.272;17.780;2022-12-10T06:02:21;-2.40;99.90
17236;DHT22;8734;59.272;17.780;2022-12-10T06:04:50;-2.30;99.90
17236;DHT22;8734;59.272;17.780;2022-12-10T06:07:18;-2.40;99.90
17236;DHT22;8734;59.272;17.780;2022-12-10T06:09:46;-2.40;99.90
17236;DHT22;8734;59.272;17.780;2022-12-10T06:12:14;-2.30;99.90
17236;DHT22;8734;59.272;17.780;2022-12-10T06:14:43;-2.40;99.90
17236;DHT22;8734;59.272;17.780;2022-12-10T06:17:11;-2.40;99.90
17236;DHT22;8734;59.272;17.780;2022-12-10T06:19:41;-2.40;99.90
17236;DHT22;8734;59.272;17.780;2022-12-10T06:22:09;-2.40;99.90
17236;DHT22;8734;59.272;17.780;2022-12-10T06:24:38;-2.40;99.90
17236;DHT22;8734;59.272;17.780;2022-12-10T06:27:06;-2.40;99.90
17236;DHT22;8734;59.272;17.780;2022-12-10T06:29:34;-2.40;99.90
17236;DHT22;8734;59.272;17.780;2022-12-10T06:32:03;-2.40;99.90
17236;DHT22;8734;59.272;17.780;2022-12-10T06:34:31;-2.40;99.90
17236;DHT22;8734;59.272;17.780;2022-12-10T06:37:06;-2.40;99.90
17236;DHT22;8734;59.272;17.780;2022-12-10T06:39:34;-2.40;99.90
17236;DHT22;8734;59.272;17.780;2022-12-10T06:42:02;-2.40;99.90
17236;DHT22;8734;59.272;17.780;2022-12-10T06:44:32;-2.40;99.90
17236;DHT22;8734;59.272;17.780;2022-12-10T06:47:01;-2.40;99.90
17236;DHT22;8734;59.272;17.780;2022-12-10T06:49:29;-2.40;99.90
17236;DHT22;8734;59.272;17.780;2022-12-10T06:51:57;-2.40;99.90
17236;DHT22;8734;59.272;17.780;2022-12-10T06:54:28;-2.40;99.90
17236;DHT22;8734;59.272;17.780;2022-12-10T06:56:56;-2.30;99.90
17236;DHT22;8734;59.272;17.780;2022-12-10T06:59:25;-2.40;99.90
17236;DHT22;8734;59.272;17.780;2022-12-10T07:01:53;-2.40;99.90
17236;DHT22;8734;59.272;17.780;2022-12-10T07:04:24;-2.40;99.90
17236;DHT22;8734;59.272;17.780;2022-12-10T07:06:52;-2.40;99.90
17236;DHT22;8734;59.272;17.780;2022-12-10T07:09:21;-2.40;99.90
17236;DHT22;8734;59.272;17.780;2022-12-10T07:11:52;-2.40;99.90
17236;DHT22;8734;59.272;17.780;2022-12-10T07:14:20;-2.40;99.90
17236;DHT22;8734;59.272;17.780;2022-12-10T07:16:49;-2.40;99.90
17236;DHT22;8734;59.272;17.780;2022-12-10T07:19:17;-2.50;99.90
17236;DHT22;8734;59.272;17.780;2022-12-10T07:21:45;-2.40;99.90
17236;DHT22;8734;59.272;17.780;2022-12-10T07:24:15;-2.40;99.90
17236;DHT22;8734;59.272;17.780;2022-12-10T07:26:45;-2.40;99.90
17236;DHT22;8734;59.272;17.780;2022-12-10T07:29:17;-2.40;99.90
17236;DHT22;8734;59.272;17.780;2022-12-10T07:31:46;-2.40;99.90
17236;DHT22;8734;59.272;17.780;2022-12-10T07:34:16;-2.40;99.90
17236;DHT22;8734;59.272;17.780;2022-12-10T07:36:44;-2.40;99.90
17236;DHT22;8734;59.272;17.780;2022-12-10T07:39:13;-2.50;99.90
17236;DHT22;8734;59.272;17.780;2022-12-10T07:41:44;-2.50;99.90
17236;DHT22;8734;59.272;17.780;2022-12-10T07:44:14;-2.40;99.90
17236;DHT22;8734;59.272;17.780;2022-12-10T07:46:43;-2.50;99.90
17236;DHT22;8734;59.272;17.780;2022-12-10T07:49:12;-2.50;99.90
17236;DHT22;8734;59.272;17.780;2022-12-10T07:51:44;-2.50;99.90
17236;DHT22;8734;59.272;17.780;2022-12-10T07:54:13;-2.50;99.90
17236;DHT22;8734;59.272;17.780;2022-12-10T07:56:41;-2.50;99.90
17236;DHT22;8734;59.272;17.780;2022-12-10T07:59:10;-2.50;99.90
17236;DHT22;8734;59.272;17.780;2022-12-10T08:01:40;-2.50;99.90
17236;DHT22;8734;59.272;17.780;2022-12-10T08:04:08;-2.60;99.90
17236;DHT22;8734;59.272;17.780;2022-12-10T08:06:37;-2.50;99.90
17236;DHT22;8734;59.272;17.780;2022-12-10T08:09:05;-2.50;99.90
17236;DHT22;8734;59.272;17.780;2022-12-10T08:11:34;-2.50;99.90
17236;DHT22;8734;59.272;17.780;2022-12-10T08:14:02;-2.50;99.90
17236;DHT22;8734;59.272;17.780;2022-12-10T08:16:31;-2.50;99.90
17236;DHT22;8734;59.272;17.780;2022-12-10T08:19:03;-2.50;99.90
17236;DHT22;8734;59.272;17.780;2022-12-10T08:21:32;-2.40;99.90
17236;DHT22;8734;59.272;17.780;2022-12-10T08:24:01;-2.40;99.90
17236;DHT22;8734;59.272;17.780;2022-12-10T08:26:31;-2.40;99.90
17236;DHT22;8734;59.272;17.780;2022-12-10T08:29:00;-2.40;99.90
17236;DHT22;8734;59.272;17.780;2022-12-10T08:31:29;-2.30;99.90
17236;DHT22;8734;59.272;17.780;2022-12-10T08:34:11;-2.30;99.90
17236;DHT22;8734;59.272;17.780;2022-12-10T08:36:40;-2.30;99.90
17236;DHT22;8734;59.272;17.780;2022-12-10T08:39:09;-2.30;99.90
17236;DHT22;8734;59.272;17.780;2022-12-10T08:41:42;-2.30;99.90
17236;DHT22;8734;59.272;17.780;2022-12-10T08:44:11;-2.30;99.90
17236;DHT22;8734;59.272;17.780;2022-12-10T08:46:39;-2.20;99.90
17236;DHT22;8734;59.272;17.780;2022-12-10T08:49:09;-2.20;99.90
17236;DHT22;8734;59.272;17.780;2022-12-10T08:51:38;-2.20;99.90
17236;DHT22;8734;59.272;17.780;2022-12-10T08:54:07;-2.20;99.90
17236;DHT22;8734;59.272;17.780;2022-12-10T08:56:35;-2.20;99.90
17236;DHT22;8734;59.272;17.780;2022-12-10T08:59:06;-2.20;99.90
17236;DHT22;8734;59.272;17.780;2022-12-10T09:01:34;-2.20;99.90
17236;DHT22;8734;59.272;17.780;2022-12-10T09:04:02;-2.20;99.90
17236;DHT22;8734;59.272;17.780;2022-12-10T09:06:32;-2.10;99.90
17236;DHT22;8734;59.272;17.780;2022-12-10T09:09:00;-2.20;99.90
17236;DHT22;8734;59.272;17.780;2022-12-10T09:11:31;-2.10;99.90
17236;DHT22;8734;59.272;17.780;2022-12-10T09:14:00;-2.10;99.90
17236;DHT22;8734;59.272;17.780;2022-12-10T09:16:30;-2.10;99.90
17236;DHT22;8734;59.272;17.780;2022-12-10T09:18:59;-2.10;99.90
17236;DHT22;8734;59.272;17.780;2022-12-10T09:21:28;-2.10;99.90
17236;DHT22;8734;59.272;17.780;2022-12-10T09:23:58;-2.10;99.90
17236;DHT22;8734;59.272;17.780;2022-12-10T09:26:27;-2.10;99.90
17236;DHT22;8734;59.272;17.780;2022-12-10T09:28:56;-2.10;99.90
17236;DHT22;8734;59.272;17.780;2022-12-10T09:31:25;-2.10;99.90
17236;DHT22;8734;59.272;17.780;2022-12-10T09:33:54;-2.10;99.90
17236;DHT22;8734;59.272;17.780;2022-12-10T09:36:22;-2.10;99.90
17236;DHT22;8734;59.272;17.780;2022-12-10T09:39:00;-2.20;99.90
17236;DHT22;8734;59.272;17.780;2022-12-10T09:42:00;-2.20;99.90
17236;DHT22;8734;59.272;17.780;2022-12-10T09:44:43;-2.10;99.90
17236;DHT22;8734;59.272;17.780;2022-12-10T09:47:14;-2.20;99.90
17236;DHT22;8734;59.272;17.780;2022-12-10T09:49:51;-2.20;99.90
17236;DHT22;8734;59.272;17.780;2022-12-10T09:52:25;-2.10;99.90
17236;DHT22;8734;59.272;17.780;2022-12-10T09:54:57;-2.10;99.90
17236;DHT22;8734;59.272;17.780;2022-12-10T09:57:28;-2.10;99.90
17236;DHT22;8734;59.272;17.780;2022-12-10T10:00:02;-2.00;99.90
17236;DHT22;8734;59.272;17.780;2022-12-10T10:02:33;-2.00;99.90
17236;DHT22;8734;59.272;17.780;2022-12-10T10:05:09;-2.10;99.90
17236;DHT22;8734;59.272;17.780;2022-12-10T10:07:43;-2.10;99.90
17236;DHT22;8734;59.272;17.780;2022-12-10T10:10:22;-2.10;99.90
17236;DHT22;8734;59.272;17.780;2022-12-10T10:12:53;-2.10;99.90
17236;DHT22;8734;59.272;17.780;2022-12-10T10:15:26;-2.10;99.90
17236;DHT22;8734;59.272;17.780;2022-12-10T10:18:00;-2.10;99.90
17236;DHT22;8734;59.272;17.780;2022-12-10T10:20:29;-2.10;99.90
17236;DHT22;8734;59.272;17.780;2022-12-10T10:22:59;-2.10;99.90
17236;DHT22;8734;59.272;17.780;2022-12-10T10:25:29;-2.10;99.90
17236;DHT22;8734;59.272;17.780;2022-12-10T10:27:58;-2.10;99.90
17236;DHT22;8734;59.272;17.780;2022-12-10T10:30:26;-2.10;99.90
17236;DHT22;8734;59.272;17.780;2022-12-10T10:32:57;-2.00;99.90
17236;DHT22;8734;59.272;17.780;2022-12-10T10:35:32;-2.10;99.90
17236;DHT22;8734;59.272;17.780;2022-12-10T10:38:06;-2.10;99.90
17236;DHT22;8734;59.272;17.780;2022-12-10T10:40:42;-2.10;99.90
17236;DHT22;8734;59.272;17.780;2022-12-10T10:43:15;-2.10;99.90
17236;DHT22;8734;59.272;17.780;2022-12-10T10:45:49;-2.10;99.90
17236;DHT22;8734;59.272;17.780;2022-12-10T10:48:21;-2.00;99.90
17236;DHT22;8734;59.272;17.780;2022-12-10T10:50:52;-2.10;99.90
17236;DHT22;8734;59.272;17.780;2022-12-10T10:53:32;-2.10;99.90
17236;DHT22;8734;59.272;17.780;2022-12-10T10:56:13;-2.10;99.90
17236;DHT22;8734;59.272;17.780;2022-12-10T10:58:49;-2.00;99.90
17236;DHT22;8734;59.272;17.780;2022-12-10T11:01:19;-2.10;99.90
17236;DHT22;8734;59.272;17.780;2022-12-10T11:03:50;-2.10;99.90
17236;DHT22;8734;59.272;17.780;2022-12-10T11:06:21;-2.10;99.90
17236;DHT22;8734;59.272;17.780;2022-12-10T11:08:54;-2.10;99.90
17236;DHT22;8734;59.272;17.780;2022-12-10T11:11:33;-2.10;99.90
17236;DHT22;8734;59.272;17.780;2022-12-10T11:14:15;-2.10;99.90
17236;DHT22;8734;59.272;17.780;2022-12-10T11:16:50;-2.00;99.90
17236;DHT22;8734;59.272;17.780;2022-12-10T11:19:25;-2.00;99.90
17236;DHT22;8734;59.272;17.780;2022-12-10T11:21:54;-1.90;99.90
17236;DHT22;8734;59.272;17.780;2022-12-10T11:24:22;-1.90;99.90
17236;DHT22;8734;59.272;17.780;2022-12-10T11:27:01;-2.00;99.90
17236;DHT22;8734;59.272;17.780;2022-12-10T11:29:46;-1.90;99.90
17236;DHT22;8734;59.272;17.780;2022-12-10T11:32:28;-1.90;99.90
17236;DHT22;8734;59.272;17.780;2022-12-10T11:35:09;-2.00;99.90
17236;DHT22;8734;59.272;17.780;2022-12-10T11:37:45;-1.90;99.90
17236;DHT22;8734;59.272;17.780;2022-12-10T11:40:37;-2.00;99.90
17236;DHT22;8734;59.272;17.780;2022-12-10T11:43:27;-2.00;99.90
17236;DHT22;8734;59.272;17.780;2022-12-10T11:46:07;-2.00;99.90
17236;DHT22;8734;59.272;17.780;2022-12-10T11:48:56;-2.00;99.90
17236;DHT22;8734;59.272;17.780;2022-12-10T11:51:37;-2.00;99.90
17236;DHT22;8734;59.272;17.780;2022-12-10T11:54:20;-2.00;99.90
17236;DHT22;8734;59.272;17.780;2022-12-10T11:56:56;-2.00;99.90
17236;DHT22;8734;59.272;17.780;2022-12-10T11:59:33;-2.00;99.90
17236;DHT22;8734;59.272;17.780;2022-12-10T12:02:51;-1.90;99.90
17236;DHT22;8734;59.272;17.780;2022-12-10T12:05:39;-1.90;99.90
17236;DHT22;8734;59.272;17.780;2022-12-10T12:08:15;-2.00;99.90
17236;DHT22;8734;59.272;17.780;2022-12-10T12:11:01;-2.00;99.90
17236;DHT22;8734;59.272;17.780;2022-12-10T12:13:35;-2.00;99.90
17236;DHT22;8734;59.272;17.780;2022-12-10T12:16:09;-2.00;99.90
17236;DHT22;8734;59.272;17.780;2022-12-10T12:18:43;-2.00;99.90
17236;DHT22;8734;59.272;17.780;2022-12-10T12:21:17;-2.00;99.90
17236;DHT22;8734;59.272;17.780;2022-12-10T12:23:50;-1.90;99.90
17236;DHT22;8734;59.272;17.780;2022-12-10T12:26:28;-1.90;99.90
17236;DHT22;8734;59.272;17.780;2022-12-10T12:29:02;-1.90;99.90
17236;DHT22;8734;59.272;17.780;2022-12-10T12:31:38;-1.90;99.90
17236;DHT22;8734;59.272;17.780;2022-12-10T12:34:16;-1.90;99.90
17236;DHT22;8734;59.272;17.780;2022-12-10T12:36:45;-1.90;99.90
17236;DHT22;8734;59.272;17.780;2022-12-10T12:39:21;-1.90;99.90
17236;DHT22;8734;59.272;17.780;2022-12-10T12:42:01;-1.90;99.90
17236;DHT22;8734;59.272;17.780;2022-12-10T12:44:36;-1.90;99.90
17236;DHT22;8734;59.272;17.780;2022-12-10T12:47:21;-1.90;99.90
17236;DHT22;8734;59.272;17.780;2022-12-10T12:49:50;-1.90;99.90
17236;DHT22;8734;59.272;17.780;2022-12-10T12:52:28;-1.90;99.90
17236;DHT22;8734;59.272;17.780;2022-12-10T12:55:09;-1.90;99.90
17236;DHT22;8734;59.272;17.780;2022-12-10T12:57:46;-1.90;99.90
17236;DHT22;8734;59.272;17.780;2022-12-10T13:00:19;-1.90;99.90
17236;DHT22;8734;59.272;17.780;2022-12-10T13:03:00;-1.90;99.90
17236;DHT22;8734;59.272;17.780;2022-12-10T13:05:36;-1.90;99.90
17236;DHT22;8734;59.272;17.780;2022-12-10T13:08:28;-1.90;99.90
17236;DHT22;8734;59.272;17.780;2022-12-10T13:10:59;-2.00;99.90
17236;DHT22;8734;59.272;17.780;2022-12-10T13:13:33;-2.00;99.90
17236;DHT22;8734;59.272;17.780;2022-12-10T13:16:45;-2.00;99.90
17236;DHT22;8734;59.272;17.780;2022-12-10T13:19:30;-2.00;99.90
17236;DHT22;8734;59.272;17.780;2022-12-10T13:22:08;-2.00;99.90
17236;DHT22;8734;59.272;17.780;2022-12-10T13:24:47;-2.00;99.90
17236;DHT22;8734;59.272;17.780;2022-12-10T13:27:17;-2.00;99.90
17236;DHT22;8734;59.272;17.780;2022-12-10T13:29:54;-2.00;99.90
17236;DHT22;8734;59.272;17.780;2022-12-10T13:32:43;-2.00;99.90
17236;DHT22;8734;59.272;17.780;2022-12-10T13:35:28;-2.00;99.90
17236;DHT22;8734;59.272;17.780;2022-12-10T13:38:04;-1.90;99.90
17236;DHT22;8734;59.272;17.780;2022-12-10T13:40:40;-1.90;99.90
17236;DHT22;8734;59.272;17.780;2022-12-10T13:43:29;-2.00;99.90
17236;DHT22;8734;59.272;17.780;2022-12-10T13:46:22;-2.00;99.90
17236;DHT22;8734;59.272;17.780;2022-12-10T13:48:53;-2.00;99.90
17236;DHT22;8734;59.272;17.780;2022-12-10T13:51:32;-2.00;99.90
17236;DHT22;8734;59.272;17.780;2022-12-10T13:54:17;-2.00;99.90
17236;DHT22;8734;59.272;17.780;2022-12-10T13:56:57;-2.00;99.90
17236;DHT22;8734;59.272;17.780;2022-12-10T13:59:36;-2.00;99.90
17236;DHT22;8734;59.272;17.780;2022-12-10T14:02:27;-2.00;99.90
17236;DHT22;8734;59.272;17.780;2022-12-10T14:05:21;-2.00;99.90
17236;DHT22;8734;59.272;17.780;2022-12-10T14:07:54;-2.10;99.90
17236;DHT22;8734;59.272;17.780;2022-12-10T14:10:30;-2.10;99.90
17236;DHT22;8734;59.272;17.780;2022-12-10T14:13:00;-2.10;99.90
17236;DHT22;8734;59.272;17.780;2022-12-10T14:15:30;-2.10;99.90
17236;DHT22;8734;59.272;17.780;2022-12-10T14:18:02;-2.20;99.90
17236;DHT22;8734;59.272;17.780;2022-12-10T14:20:32;-2.10;99.90
17236;DHT22;8734;59.272;17.780;2022-12-10T14:23:05;-2.20;99.90
17236;DHT22;8734;59.272;17.780;2022-12-10T14:26:04;-2.20;99.90
17236;DHT22;8734;59.272;17.780;2022-12-10T14:28:36;-2.20;99.90
17236;DHT22;8734;59.272;17.780;2022-12-10T14:31:13;-2.30;99.90
17236;DHT22;8734;59.272;17.780;2022-12-10T14:33:45;-2.30;99.90
17236;DHT22;8734;59.272;17.780;2022-12-10T14:36:17;-2.30;99.90
17236;DHT22;8734;59.272;17.780;2022-12-10T14:38:47;-2.30;99.90
17236;DHT22;8734;59.272;17.780;2022-12-10T14:41:19;-2.40;99.90
17236;DHT22;8734;59.272;17.780;2022-12-10T14:43:48;-2.40;99.90
17236;DHT22;8734;59.272;17.780;2022-12-10T14:46:19;-2.40;99.90
17236;DHT22;8734;59.272;17.780;2022-12-10T14:48:50;-2.40;99.90
17236;DHT22;8734;59.272;17.780;2022-12-10T14:51:22;-2.40;99.90
17236;DHT22;8734;59.272;17.780;2022-12-10T14:53:53;-2.40;99.90
17236;DHT22;8734;59.272;17.780;2022-12-10T14:56:25;-2.40;99.90
17236;DHT22;8734;59.272;17.780;2022-12-10T14:58:59;-2.40;99.90
17236;DHT22;8734;59.272;17.780;2022-12-10T15:01:31;-2.40;99.90
17236;DHT22;8734;59.272;17.780;2022-12-10T15:04:03;-2.40;99.90
17236;DHT22;8734;59.272;17.780;2022-12-10T15:06:34;-2.40;99.90
17236;DHT22;8734;59.272;17.780;2022-12-10T15:09:09;-2.40;99.90
17236;DHT22;8734;59.272;17.780;2022-12-10T15:11:41;-2.40;99.90
17236;DHT22;8734;59.272;17.780;2022-12-10T15:14:16;-2.40;99.90
17236;DHT22;8734;59.272;17.780;2022-12-10T15:16:47;-2.50;99.90
17236;DHT22;8734;59.272;17.780;2022-12-10T15:19:18;-2.50;99.90
17236;DHT22;8734;59.272;17.780;2022-12-10T15:21:49;-2.50;99.90
17236;DHT22;8734;59.272;17.780;2022-12-10T15:24:21;-2.50;99.90
17236;DHT22;8734;59.272;17.780;2022-12-10T15:26:51;-2.50;99.90
17236;DHT22;8734;59.272;17.780;2022-12-10T15:29:34;-2.40;99.90
17236;DHT22;8734;59.272;17.780;2022-12-10T15:32:08;-2.50;99.90
17236;DHT22;8734;59.272;17.780;2022-12-10T15:34:43;-2.50;99.90
17236;DHT22;8734;59.272;17.780;2022-12-10T15:37:18;-2.50;99.90
17236;DHT22;8734;59.272;17.780;2022-12-10T15:39:52;-2.50;99.90
17236;DHT22;8734;59.272;17.780;2022-12-10T15:42:35;-2.50;99.90
17236;DHT22;8734;59.272;17.780;2022-12-10T15:45:15;-2.50;99.90
17236;DHT22;8734;59.272;17.780;2022-12-10T15:47:45;-2.50;99.90
17236;DHT22;8734;59.272;17.780;2022-12-10T15:50:13;-2.50;99.90
17236;DHT22;8734;59.272;17.780;2022-12-10T15:52:42;-2.50;99.90
17236;DHT22;8734;59.272;17.780;2022-12-10T15:55:13;-2.50;99.90
17236;DHT22;8734;59.272;17.780;2022-12-10T15:57:43;-2.50;99.90
17236;DHT22;8734;59.272;17.780;2022-12-10T16:00:18;-2.50;99.90
17236;DHT22;8734;59.272;17.780;2022-12-10T16:02:49;-2.60;99.90
17236;DHT22;8734;59.272;17.780;2022-12-10T16:05:21;-2.50;99.90
17236;DHT22;8734;59.272;17.780;2022-12-10T16:07:52;-2.50;99.90